sensor_id;sensor_type;location;lat;lon;timestamp;P1;durP1;ratioP1;P2;durP2;ratioP2
6388;SDS011;3227;42.654;23.360;2023-02-01T00:02:14;8.20;;;4.60;;
6388;SDS011;3227;42.654;23.360;2023-02-01T00:04:41;9.67;;;5.20;;
6388;SDS011;3227;42.654;23.360;2023-02-01T00:07:08;8.63;;;5.10;;
6388;SDS011;3227;42.654;23.360;2023-02-01T00:09:35;7.50;;;4.60;;
6388;SDS011;3227;42.654;23.360;2023-02-01T00:12:02;7.50;;;4.70;;
6388;SDS011;3227;42.654;23.360;2023-02-01T00:14:29;7.40;;;4.67;;
6388;SDS011;3227;42.654;23.360;2023-02-01T00:16:57;7.53;;;4.50;;
6388;SDS011;3227;42.654;23.360;2023-02-01T00:19:25;7.67;;;4.40;;
6388;SDS011;3227;42.654;23.360;2023-02-01T00:21:52;8.10;;;4.87;;
6388;SDS011;3227;42.654;23.360;2023-02-01T00:24:19;7.47;;;4.50;;
6388;SDS011;3227;42.654;23.360;2023-02-01T00:26:45;7.60;;;4.70;;
6388;SDS011;3227;42.654;23.360;2023-02-01T00:29:13;7.63;;;4.47;;
6388;SDS011;3227;42.654;23.360;2023-02-01T00:31:42;8.47;;;5.07;;
6388;SDS011;3227;42.654;23.360;2023-02-01T00:34:09;7.77;;;4.77;;
6388;SDS011;3227;42.654;23.360;2023-02-01T00:36:39;8.43;;;4.90;;
6388;SDS011;3227;42.654;23.360;2023-02-01T00:39:05;8.03;;;4.70;;
6388;SDS011;3227;42.654;23.360;2023-02-01T00:41:32;7.60;;;4.60;;
6388;SDS011;3227;42.654;23.360;2023-02-01T00:43:59;7.10;;;4.40;;
6388;SDS011;3227;42.654;23.360;2023-02-01T00:46:26;7.73;;;4.57;;
6388;SDS011;3227;42.654;23.360;2023-02-01T00:48:53;7.53;;;4.50;;
6388;SDS011;3227;42.654;23.360;2023-02-01T00:51:21;7.47;;;4.30;;
6388;SDS011;3227;42.654;23.360;2023-02-01T00:53:50;6.97;;;4.17;;
6388;SDS011;3227;42.654;23.360;2023-02-01T00:56:17;7.33;;;4.30;;
6388;SDS011;3227;42.654;23.360;2023-02-01T00:58:44;8.47;;;4.20;;
6388;SDS011;3227;42.654;23.360;2023-02-01T01:01:11;6.47;;;3.90;;
6388;SDS011;3227;42.654;23.360;2023-02-01T01:03:40;8.20;;;4.50;;
6388;SDS011;3227;42.654;23.360;2023-02-01T01:06:09;7.90;;;3.90;;
6388;SDS011;3227;42.654;23.360;2023-02-01T01:08:37;6.47;;;4.13;;
6388;SDS011;3227;42.654;23.360;2023-02-01T01:11:07;6.97;;;4.07;;
6388;SDS011;3227;42.654;23.360;2023-02-01T01:13:35;7.90;;;4.80;;
6388;SDS011;3227;42.654;23.360;2023-02-01T01:16:03;6.03;;;3.70;;
6388;SDS011;3227;42.654;23.360;2023-02-01T01:18:32;7.47;;;3.90;;
6388;SDS011;3227;42.654;23.360;2023-02-01T01:20:59;7.77;;;3.80;;
6388;SDS011;3227;42.654;23.360;2023-02-01T01:23:27;6.70;;;3.67;;
6388;SDS011;3227;42.654;23.360;2023-02-01T01:25:54;9.73;;;4.13;;
6388;SDS011;3227;42.654;23.360;2023-02-01T01:28:22;6.30;;;3.80;;
6388;SDS011;3227;42.654;23.360;2023-02-01T01:30:49;6.53;;;3.77;;
6388;SDS011;3227;42.654;23.360;2023-02-01T01:33:16;8.03;;;3.93;;
6388;SDS011;3227;42.654;23.360;2023-02-01T01:35:42;8.67;;;3.50;;
6388;SDS011;3227;42.654;23.360;2023-02-01T01:38:09;7.30;;;3.57;;
6388;SDS011;3227;42.654;23.360;2023-02-01T01:40:37;6.90;;;3.77;;
6388;SDS011;3227;42.654;23.360;2023-02-01T01:43:05;6.83;;;3.80;;
6388;SDS011;3227;42.654;23.360;2023-02-01T01:45:40;5.87;;;3.60;;
6388;SDS011;3227;42.654;23.360;2023-02-01T01:48:08;6.73;;;3.57;;
6388;SDS011;3227;42.654;23.360;2023-02-01T01:50:42;7.70;;;3.60;;
6388;SDS011;3227;42.654;23.360;2023-02-01T01:53:13;6.67;;;3.67;;
6388;SDS011;3227;42.654;23.360;2023-02-01T01:55:45;7.43;;;3.60;;
6388;SDS011;3227;42.654;23.360;2023-02-01T01:58:16;7.60;;;4.00;;
6388;SDS011;3227;42.654;23.360;2023-02-01T02:00:46;7.07;;;3.70;;
6388;SDS011;3227;42.654;23.360;2023-02-01T02:03:15;7.13;;;3.93;;
6388;SDS011;3227;42.654;23.360;2023-02-01T02:05:46;6.27;;;3.80;;
6388;SDS011;3227;42.654;23.360;2023-02-01T02:08:15;6.07;;;3.10;;
6388;SDS011;3227;42.654;23.360;2023-02-01T02:10:43;8.07;;;3.93;;
6388;SDS011;3227;42.654;23.360;2023-02-01T02:13:29;7.03;;;3.70;;
6388;SDS011;3227;42.654;23.360;2023-02-01T02:16:05;6.00;;;3.70;;
6388;SDS011;3227;42.654;23.360;2023-02-01T02:18:45;5.57;;;3.33;;
6388;SDS011;3227;42.654;23.360;2023-02-01T02:21:23;7.17;;;3.57;;
6388;SDS011;3227;42.654;23.360;2023-02-01T02:36:15;6.80;;;3.63;;
6388;SDS011;3227;42.654;23.360;2023-02-01T02:38:47;7.30;;;3.63;;
6388;SDS011;3227;42.654;23.360;2023-02-01T02:41:22;5.37;;;3.60;;
6388;SDS011;3227;42.654;23.360;2023-02-01T02:44:18;6.50;;;3.40;;
6388;SDS011;3227;42.654;23.360;2023-02-01T02:47:09;6.67;;;3.67;;
6388;SDS011;3227;42.654;23.360;2023-02-01T02:49:55;7.63;;;3.60;;
6388;SDS011;3227;42.654;23.360;2023-02-01T02:52:48;8.77;;;4.03;;
6388;SDS011;3227;42.654;23.360;2023-02-01T02:55:38;7.33;;;3.40;;
6388;SDS011;3227;42.654;23.360;2023-02-01T02:58:11;6.90;;;3.30;;
6388;SDS011;3227;42.654;23.360;2023-02-01T03:00:57;6.57;;;3.70;;
6388;SDS011;3227;42.654;23.360;2023-02-01T03:03:41;6.83;;;3.47;;
6388;SDS011;3227;42.654;23.360;2023-02-01T03:06:28;7.37;;;3.63;;
6388;SDS011;3227;42.654;23.360;2023-02-01T03:08:56;6.97;;;3.40;;
6388;SDS011;3227;42.654;23.360;2023-02-01T03:11:24;7.07;;;3.30;;
6388;SDS011;3227;42.654;23.360;2023-02-01T03:14:13;6.20;;;3.10;;
6388;SDS011;3227;42.654;23.360;2023-02-01T03:16:43;6.47;;;3.53;;
6388;SDS011;3227;42.654;23.360;2023-02-01T03:19:15;6.43;;;3.17;;
6388;SDS011;3227;42.654;23.360;2023-02-01T03:21:47;6.70;;;3.20;;
6388;SDS011;3227;42.654;23.360;2023-02-01T03:24:18;6.40;;;3.10;;
6388;SDS011;3227;42.654;23.360;2023-02-01T03:27:00;5.23;;;2.93;;
6388;SDS011;3227;42.654;23.360;2023-02-01T03:29:30;5.10;;;3.13;;
6388;SDS011;3227;42.654;23.360;2023-02-01T03:32:04;6.03;;;3.53;;
6388;SDS011;3227;42.654;23.360;2023-02-01T03:34:31;8.27;;;3.27;;
6388;SDS011;3227;42.654;23.360;2023-02-01T03:37:01;7.50;;;3.37;;
6388;SDS011;3227;42.654;23.360;2023-02-01T03:39:32;6.70;;;3.23;;
6388;SDS011;3227;42.654;23.360;2023-02-01T03:42:03;4.97;;;2.97;;
6388;SDS011;3227;42.654;23.360;2023-02-01T03:44:34;5.17;;;2.93;;
6388;SDS011;3227;42.654;23.360;2023-02-01T03:47:05;6.27;;;3.00;;
6388;SDS011;3227;42.654;23.360;2023-02-01T03:49:35;6.30;;;3.27;;
6388;SDS011;3227;42.654;23.360;2023-02-01T03:52:08;6.10;;;3.30;;
6388;SDS011;3227;42.654;23.360;2023-02-01T03:54:39;6.13;;;3.20;;
6388;SDS011;3227;42.654;23.360;2023-02-01T03:57:09;6.37;;;3.07;;
6388;SDS011;3227;42.654;23.360;2023-02-01T03:59:39;6.63;;;3.27;;
6388;SDS011;3227;42.654;23.360;2023-02-01T04:02:06;5.60;;;2.93;;
6388;SDS011;3227;42.654;23.360;2023-02-01T04:04:33;4.70;;;3.00;;
6388;SDS011;3227;42.654;23.360;2023-02-01T04:07:00;5.20;;;2.97;;
6388;SDS011;3227;42.654;23.360;2023-02-01T04:09:29;7.27;;;3.10;;
6388;SDS011;3227;42.654;23.360;2023-02-01T04:11:56;4.30;;;2.80;;
6388;SDS011;3227;42.654;23.360;2023-02-01T04:14:23;5.73;;;3.23;;
6388;SDS011;3227;42.654;23.360;2023-02-01T04:16:49;8.03;;;3.20;;
6388;SDS011;3227;42.654;23.360;2023-02-01T04:19:17;7.53;;;2.93;;
6388;SDS011;3227;42.654;23.360;2023-02-01T04:21:43;7.80;;;3.20;;
6388;SDS011;3227;42.654;23.360;2023-02-01T04:24:10;6.87;;;3.23;;
6388;SDS011;3227;42.654;23.360;2023-02-01T04:26:38;5.97;;;3.00;;
6388;SDS011;3227;42.654;23.360;2023-02-01T04:29:05;7.13;;;3.20;;
6388;SDS011;3227;42.654;23.360;2023-02-01T04:31:32;5.60;;;3.50;;
6388;SDS011;3227;42.654;23.360;2023-02-01T04:34:01;5.67;;;3.10;;
6388;SDS011;3227;42.654;23.360;2023-02-01T04:36:28;7.47;;;3.27;;
6388;SDS011;3227;42.654;23.360;2023-02-01T04:38:55;8.20;;;3.40;;
6388;SDS011;3227;42.654;23.360;2023-02-01T04:41:21;8.90;;;3.40;;
6388;SDS011;3227;42.654;23.360;2023-02-01T04:43:50;6.13;;;3.77;;
6388;SDS011;3227;42.654;23.360;2023-02-01T04:46:17;6.70;;;3.80;;
6388;SDS011;3227;42.654;23.360;2023-02-01T04:48:44;6.30;;;3.73;;
6388;SDS011;3227;42.654;23.360;2023-02-01T04:51:11;6.33;;;3.40;;
6388;SDS011;3227;42.654;23.360;2023-02-01T04:53:38;9.03;;;3.67;;
6388;SDS011;3227;42.654;23.360;2023-02-01T04:56:05;6.83;;;3.97;;
6388;SDS011;3227;42.654;23.360;2023-02-01T04:58:33;11.20;;;4.43;;
6388;SDS011;3227;42.654;23.360;2023-02-01T05:01:03;9.50;;;3.90;;
6388;SDS011;3227;42.654;23.360;2023-02-01T05:03:30;7.50;;;4.00;;
6388;SDS011;3227;42.654;23.360;2023-02-01T05:05:58;10.67;;;4.00;;
6388;SDS011;3227;42.654;23.360;2023-02-01T05:08:25;7.47;;;3.70;;
6388;SDS011;3227;42.654;23.360;2023-02-01T05:10:53;10.87;;;4.13;;
6388;SDS011;3227;42.654;23.360;2023-02-01T05:13:20;10.27;;;4.10;;
6388;SDS011;3227;42.654;23.360;2023-02-01T05:16:06;8.57;;;3.70;;
6388;SDS011;3227;42.654;23.360;2023-02-01T05:18:33;10.23;;;3.97;;
6388;SDS011;3227;42.654;23.360;2023-02-01T05:21:00;8.50;;;4.33;;
6388;SDS011;3227;42.654;23.360;2023-02-01T05:23:26;6.50;;;3.60;;
6388;SDS011;3227;42.654;23.360;2023-02-01T05:25:57;6.93;;;4.10;;
6388;SDS011;3227;42.654;23.360;2023-02-01T05:28:25;6.67;;;4.00;;
6388;SDS011;3227;42.654;23.360;2023-02-01T05:30:51;9.53;;;4.20;;
6388;SDS011;3227;42.654;23.360;2023-02-01T05:33:20;9.03;;;4.20;;
6388;SDS011;3227;42.654;23.360;2023-02-01T05:35:47;11.47;;;4.90;;
6388;SDS011;3227;42.654;23.360;2023-02-01T05:38:15;9.23;;;4.27;;
6388;SDS011;3227;42.654;23.360;2023-02-01T05:40:42;11.20;;;4.50;;
6388;SDS011;3227;42.654;23.360;2023-02-01T05:43:14;6.93;;;3.83;;
6388;SDS011;3227;42.654;23.360;2023-02-01T05:45:41;8.30;;;4.30;;
6388;SDS011;3227;42.654;23.360;2023-02-01T05:48:13;11.10;;;4.53;;
6388;SDS011;3227;42.654;23.360;2023-02-01T05:50:41;9.13;;;4.63;;
6388;SDS011;3227;42.654;23.360;2023-02-01T05:53:09;8.50;;;4.57;;
6388;SDS011;3227;42.654;23.360;2023-02-01T05:55:36;7.57;;;4.63;;
6388;SDS011;3227;42.654;23.360;2023-02-01T05:58:03;9.37;;;4.67;;
6388;SDS011;3227;42.654;23.360;2023-02-01T06:00:31;11.83;;;4.63;;
6388;SDS011;3227;42.654;23.360;2023-02-01T06:02:58;12.57;;;4.73;;
6388;SDS011;3227;42.654;23.360;2023-02-01T06:05:24;8.50;;;4.53;;
6388;SDS011;3227;42.654;23.360;2023-02-01T06:07:53;11.20;;;4.43;;
6388;SDS011;3227;42.654;23.360;2023-02-01T06:10:19;9.53;;;4.80;;
6388;SDS011;3227;42.654;23.360;2023-02-01T06:12:46;7.87;;;4.40;;
6388;SDS011;3227;42.654;23.360;2023-02-01T06:15:13;10.10;;;4.70;;
6388;SDS011;3227;42.654;23.360;2023-02-01T06:17:41;10.17;;;4.50;;
6388;SDS011;3227;42.654;23.360;2023-02-01T06:20:09;14.33;;;4.83;;
6388;SDS011;3227;42.654;23.360;2023-02-01T06:22:37;10.60;;;4.30;;
6388;SDS011;3227;42.654;23.360;2023-02-01T06:25:07;10.77;;;4.43;;
6388;SDS011;3227;42.654;23.360;2023-02-01T06:27:35;9.30;;;4.60;;
6388;SDS011;3227;42.654;23.360;2023-02-01T06:30:05;12.00;;;4.70;;
6388;SDS011;3227;42.654;23.360;2023-02-01T06:32:33;9.37;;;4.20;;
6388;SDS011;3227;42.654;23.360;2023-02-01T06:35:00;10.90;;;4.50;;
6388;SDS011;3227;42.654;23.360;2023-02-01T06:37:26;17.07;;;4.57;;
6388;SDS011;3227;42.654;23.360;2023-02-01T06:39:54;8.00;;;4.30;;
6388;SDS011;3227;42.654;23.360;2023-02-01T06:42:22;9.60;;;4.33;;
6388;SDS011;3227;42.654;23.360;2023-02-01T06:44:50;9.83;;;4.37;;
6388;SDS011;3227;42.654;23.360;2023-02-01T06:47:17;8.53;;;3.90;;
6388;SDS011;3227;42.654;23.360;2023-02-01T06:49:44;11.50;;;4.30;;
6388;SDS011;3227;42.654;23.360;2023-02-01T06:52:11;10.80;;;4.00;;
6388;SDS011;3227;42.654;23.360;2023-02-01T06:54:37;10.33;;;4.60;;
6388;SDS011;3227;42.654;23.360;2023-02-01T06:57:04;10.63;;;4.40;;
6388;SDS011;3227;42.654;23.360;2023-02-01T06:59:32;7.73;;;3.80;;
6388;SDS011;3227;42.654;23.360;2023-02-01T07:01:59;11.90;;;4.50;;
6388;SDS011;3227;42.654;23.360;2023-02-01T07:04:26;7.10;;;3.97;;
6388;SDS011;3227;42.654;23.360;2023-02-01T07:06:53;8.23;;;3.77;;
6388;SDS011;3227;42.654;23.360;2023-02-01T07:09:19;8.60;;;3.63;;
6388;SDS011;3227;42.654;23.360;2023-02-01T07:11:46;8.53;;;4.03;;
6388;SDS011;3227;42.654;23.360;2023-02-01T07:14:13;13.00;;;4.20;;
6388;SDS011;3227;42.654;23.360;2023-02-01T07:16:41;7.10;;;3.63;;
6388;SDS011;3227;42.654;23.360;2023-02-01T07:19:08;8.07;;;3.90;;
6388;SDS011;3227;42.654;23.360;2023-02-01T07:21:35;12.00;;;4.63;;
6388;SDS011;3227;42.654;23.360;2023-02-01T07:24:02;6.43;;;3.80;;
6388;SDS011;3227;42.654;23.360;2023-02-01T07:26:31;9.90;;;3.80;;
6388;SDS011;3227;42.654;23.360;2023-02-01T07:28:58;12.30;;;3.60;;
6388;SDS011;3227;42.654;23.360;2023-02-01T07:31:24;9.10;;;4.10;;
6388;SDS011;3227;42.654;23.360;2023-02-01T07:33:55;10.30;;;3.77;;
6388;SDS011;3227;42.654;23.360;2023-02-01T07:36:23;8.30;;;3.97;;
6388;SDS011;3227;42.654;23.360;2023-02-01T07:38:50;11.27;;;4.30;;
6388;SDS011;3227;42.654;23.360;2023-02-01T07:41:17;8.37;;;4.10;;
6388;SDS011;3227;42.654;23.360;2023-02-01T07:43:44;9.57;;;3.80;;
6388;SDS011;3227;42.654;23.360;2023-02-01T07:46:11;10.30;;;3.63;;
6388;SDS011;3227;42.654;23.360;2023-02-01T07:48:40;8.27;;;4.00;;
6388;SDS011;3227;42.654;23.360;2023-02-01T07:51:10;9.47;;;4.10;;
6388;SDS011;3227;42.654;23.360;2023-02-01T07:53:38;10.00;;;3.73;;
6388;SDS011;3227;42.654;23.360;2023-02-01T07:56:09;7.87;;;3.80;;
6388;SDS011;3227;42.654;23.360;2023-02-01T07:58:39;14.10;;;4.43;;
6388;SDS011;3227;42.654;23.360;2023-02-01T08:01:10;8.23;;;3.53;;
6388;SDS011;3227;42.654;23.360;2023-02-01T08:03:46;10.90;;;4.10;;
6388;SDS011;3227;42.654;23.360;2023-02-01T08:06:15;8.03;;;3.77;;
6388;SDS011;3227;42.654;23.360;2023-02-01T08:08:41;9.40;;;4.00;;
6388;SDS011;3227;42.654;23.360;2023-02-01T08:11:10;6.40;;;3.37;;
6388;SDS011;3227;42.654;23.360;2023-02-01T08:13:37;7.73;;;3.53;;
6388;SDS011;3227;42.654;23.360;2023-02-01T08:16:05;11.83;;;4.17;;
6388;SDS011;3227;42.654;23.360;2023-02-01T08:18:33;6.30;;;3.60;;
6388;SDS011;3227;42.654;23.360;2023-02-01T08:21:04;10.47;;;4.10;;
6388;SDS011;3227;42.654;23.360;2023-02-01T08:23:34;7.00;;;3.80;;
6388;SDS011;3227;42.654;23.360;2023-02-01T08:26:08;9.47;;;3.50;;
6388;SDS011;3227;42.654;23.360;2023-02-01T08:28:37;11.70;;;4.77;;
6388;SDS011;3227;42.654;23.360;2023-02-01T08:31:04;10.17;;;4.13;;
6388;SDS011;3227;42.654;23.360;2023-02-01T08:33:32;13.03;;;3.93;;
6388;SDS011;3227;42.654;23.360;2023-02-01T08:36:01;11.87;;;4.77;;
6388;SDS011;3227;42.654;23.360;2023-02-01T08:38:28;8.83;;;4.13;;
6388;SDS011;3227;42.654;23.360;2023-02-01T08:41:02;10.50;;;4.90;;
6388;SDS011;3227;42.654;23.360;2023-02-01T08:43:39;9.03;;;4.07;;
6388;SDS011;3227;42.654;23.360;2023-02-01T08:46:07;9.63;;;3.97;;
6388;SDS011;3227;42.654;23.360;2023-02-01T08:48:37;9.43;;;4.60;;
6388;SDS011;3227;42.654;23.360;2023-02-01T08:51:05;8.83;;;3.73;;
6388;SDS011;3227;42.654;23.360;2023-02-01T08:53:33;13.50;;;4.50;;
6388;SDS011;3227;42.654;23.360;2023-02-01T08:56:02;13.63;;;5.63;;
6388;SDS011;3227;42.654;23.360;2023-02-01T08:58:34;15.23;;;5.97;;
6388;SDS011;3227;42.654;23.360;2023-02-01T09:01:02;11.57;;;5.03;;
6388;SDS011;3227;42.654;23.360;2023-02-01T09:03:30;10.77;;;4.60;;
6388;SDS011;3227;42.654;23.360;2023-02-01T09:05:59;7.00;;;3.77;;
6388;SDS011;3227;42.654;23.360;2023-02-01T09:08:26;9.40;;;4.20;;
6388;SDS011;3227;42.654;23.360;2023-02-01T09:10:53;9.13;;;4.10;;
6388;SDS011;3227;42.654;23.360;2023-02-01T09:13:26;9.93;;;3.60;;
6388;SDS011;3227;42.654;23.360;2023-02-01T09:15:53;7.60;;;3.63;;
6388;SDS011;3227;42.654;23.360;2023-02-01T09:18:20;9.77;;;4.40;;
6388;SDS011;3227;42.654;23.360;2023-02-01T09:20:47;17.87;;;4.17;;
6388;SDS011;3227;42.654;23.360;2023-02-01T09:23:14;9.27;;;3.60;;
6388;SDS011;3227;42.654;23.360;2023-02-01T09:25:40;9.07;;;4.33;;
6388;SDS011;3227;42.654;23.360;2023-02-01T09:28:07;7.30;;;3.70;;
6388;SDS011;3227;42.654;23.360;2023-02-01T09:30:36;9.83;;;3.77;;
6388;SDS011;3227;42.654;23.360;2023-02-01T09:33:03;7.80;;;3.37;;
6388;SDS011;3227;42.654;23.360;2023-02-01T09:35:30;11.60;;;3.83;;
6388;SDS011;3227;42.654;23.360;2023-02-01T09:38:07;9.80;;;3.97;;
6388;SDS011;3227;42.654;23.360;2023-02-01T09:40:34;6.37;;;3.10;;
6388;SDS011;3227;42.654;23.360;2023-02-01T09:43:14;7.93;;;3.30;;
6388;SDS011;3227;42.654;23.360;2023-02-01T09:45:51;10.17;;;3.23;;
6388;SDS011;3227;42.654;23.360;2023-02-01T09:48:31;8.50;;;3.60;;
6388;SDS011;3227;42.654;23.360;2023-02-01T09:51:02;10.57;;;3.80;;
6388;SDS011;3227;42.654;23.360;2023-02-01T09:53:37;8.03;;;3.70;;
6388;SDS011;3227;42.654;23.360;2023-02-01T09:56:10;10.30;;;4.33;;
6388;SDS011;3227;42.654;23.360;2023-02-01T09:58:41;17.90;;;5.40;;
6388;SDS011;3227;42.654;23.360;2023-02-01T10:01:14;15.17;;;5.50;;
6388;SDS011;3227;42.654;23.360;2023-02-01T10:03:45;11.80;;;5.47;;
6388;SDS011;3227;42.654;23.360;2023-02-01T10:15:22;8.83;;;3.73;;
6388;SDS011;3227;42.654;23.360;2023-02-01T10:18:02;9.57;;;3.60;;
6388;SDS011;3227;42.654;23.360;2023-02-01T10:20:44;8.87;;;3.10;;
6388;SDS011;3227;42.654;23.360;2023-02-01T10:23:24;7.17;;;3.30;;
6388;SDS011;3227;42.654;23.360;2023-02-01T10:26:17;7.37;;;3.00;;
6388;SDS011;3227;42.654;23.360;2023-02-01T10:28:45;7.97;;;3.37;;
6388;SDS011;3227;42.654;23.360;2023-02-01T10:31:16;8.40;;;3.30;;
6388;SDS011;3227;42.654;23.360;2023-02-01T10:33:45;7.87;;;3.20;;
6388;SDS011;3227;42.654;23.360;2023-02-01T10:36:16;7.90;;;2.77;;
6388;SDS011;3227;42.654;23.360;2023-02-01T10:38:49;6.77;;;2.90;;
6388;SDS011;3227;42.654;23.360;2023-02-01T10:41:17;6.63;;;2.83;;
6388;SDS011;3227;42.654;23.360;2023-02-01T10:43:50;7.37;;;3.27;;
6388;SDS011;3227;42.654;23.360;2023-02-01T10:46:22;8.63;;;3.40;;
6388;SDS011;3227;42.654;23.360;2023-02-01T10:48:51;9.67;;;3.70;;
6388;SDS011;3227;42.654;23.360;2023-02-01T10:51:21;7.87;;;3.47;;
6388;SDS011;3227;42.654;23.360;2023-02-01T10:53:52;11.10;;;3.43;;
6388;SDS011;3227;42.654;23.360;2023-02-01T10:56:24;7.50;;;3.57;;
6388;SDS011;3227;42.654;23.360;2023-02-01T10:58:58;12.03;;;3.60;;
6388;SDS011;3227;42.654;23.360;2023-02-01T11:01:27;9.47;;;3.60;;
6388;SDS011;3227;42.654;23.360;2023-02-01T11:03:58;6.97;;;3.07;;
6388;SDS011;3227;42.654;23.360;2023-02-01T11:06:28;9.70;;;3.43;;
6388;SDS011;3227;42.654;23.360;2023-02-01T11:08:57;9.07;;;3.67;;
6388;SDS011;3227;42.654;23.360;2023-02-01T11:11:26;9.07;;;3.00;;
6388;SDS011;3227;42.654;23.360;2023-02-01T11:13:55;8.57;;;2.93;;
6388;SDS011;3227;42.654;23.360;2023-02-01T11:16:34;9.03;;;3.30;;
6388;SDS011;3227;42.654;23.360;2023-02-01T11:19:05;6.07;;;3.03;;
6388;SDS011;3227;42.654;23.360;2023-02-01T11:21:33;4.90;;;2.77;;
6388;SDS011;3227;42.654;23.360;2023-02-01T11:24:00;5.57;;;2.70;;
6388;SDS011;3227;42.654;23.360;2023-02-01T11:26:29;4.83;;;2.63;;
6388;SDS011;3227;42.654;23.360;2023-02-01T11:28:58;6.53;;;2.67;;
6388;SDS011;3227;42.654;23.360;2023-02-01T11:31:27;4.23;;;2.60;;
6388;SDS011;3227;42.654;23.360;2023-02-01T11:33:55;7.07;;;2.70;;
6388;SDS011;3227;42.654;23.360;2023-02-01T11:36:32;9.87;;;3.00;;
6388;SDS011;3227;42.654;23.360;2023-02-01T11:39:10;6.40;;;2.60;;
6388;SDS011;3227;42.654;23.360;2023-02-01T11:41:55;5.87;;;2.90;;
6388;SDS011;3227;42.654;23.360;2023-02-01T11:44:29;10.73;;;3.00;;
6388;SDS011;3227;42.654;23.360;2023-02-01T11:47:12;5.53;;;2.43;;
6388;SDS011;3227;42.654;23.360;2023-02-01T11:49:45;7.97;;;2.70;;
6388;SDS011;3227;42.654;23.360;2023-02-01T11:52:15;7.40;;;2.77;;
6388;SDS011;3227;42.654;23.360;2023-02-01T11:54:58;5.53;;;2.80;;
6388;SDS011;3227;42.654;23.360;2023-02-01T11:57:37;8.17;;;3.20;;
6388;SDS011;3227;42.654;23.360;2023-02-01T12:00:23;4.53;;;2.37;;
6388;SDS011;3227;42.654;23.360;2023-02-01T12:03:09;7.07;;;2.67;;
6388;SDS011;3227;42.654;23.360;2023-02-01T12:06:05;5.87;;;2.20;;
6388;SDS011;3227;42.654;23.360;2023-02-01T12:08:54;6.47;;;3.70;;
6388;SDS011;3227;42.654;23.360;2023-02-01T12:11:37;4.27;;;2.37;;
6388;SDS011;3227;42.654;23.360;2023-02-01T12:14:21;6.67;;;2.53;;
6388;SDS011;3227;42.654;23.360;2023-02-01T12:16:56;4.13;;;2.40;;
6388;SDS011;3227;42.654;23.360;2023-02-01T12:19:42;5.20;;;2.70;;
6388;SDS011;3227;42.654;23.360;2023-02-01T12:22:29;5.73;;;2.87;;
6388;SDS011;3227;42.654;23.360;2023-02-01T12:25:10;5.50;;;2.70;;
6388;SDS011;3227;42.654;23.360;2023-02-01T12:28:01;4.90;;;2.67;;
6388;SDS011;3227;42.654;23.360;2023-02-01T12:30:46;5.90;;;2.63;;
6388;SDS011;3227;42.654;23.360;2023-02-01T12:33:27;5.63;;;2.47;;
6388;SDS011;3227;42.654;23.360;2023-02-01T12:36:08;9.27;;;2.63;;
6388;SDS011;3227;42.654;23.360;2023-02-01T12:38:46;5.53;;;2.67;;
6388;SDS011;3227;42.654;23.360;2023-02-01T12:41:23;6.43;;;3.00;;
6388;SDS011;3227;42.654;23.360;2023-02-01T12:44:00;6.30;;;2.60;;
6388;SDS011;3227;42.654;23.360;2023-02-01T12:46:32;6.13;;;2.80;;
6388;SDS011;3227;42.654;23.360;2023-02-01T12:49:04;6.47;;;2.57;;
6388;SDS011;3227;42.654;23.360;2023-02-01T12:51:37;7.83;;;2.50;;
6388;SDS011;3227;42.654;23.360;2023-02-01T12:54:09;6.13;;;2.53;;
6388;SDS011;3227;42.654;23.360;2023-02-01T12:56:42;9.70;;;3.00;;
6388;SDS011;3227;42.654;23.360;2023-02-01T12:59:15;11.10;;;4.37;;
6388;SDS011;3227;42.654;23.360;2023-02-01T13:01:48;4.63;;;2.70;;
6388;SDS011;3227;42.654;23.360;2023-02-01T13:04:24;5.07;;;2.50;;
6388;SDS011;3227;42.654;23.360;2023-02-01T13:06:57;6.50;;;2.60;;
6388;SDS011;3227;42.654;23.360;2023-02-01T13:09:31;4.77;;;2.40;;
6388;SDS011;3227;42.654;23.360;2023-02-01T13:12:09;4.67;;;2.63;;
6388;SDS011;3227;42.654;23.360;2023-02-01T13:14:42;4.57;;;2.70;;
6388;SDS011;3227;42.654;23.360;2023-02-01T13:17:14;6.03;;;2.50;;
6388;SDS011;3227;42.654;23.360;2023-02-01T13:19:45;6.47;;;2.57;;
6388;SDS011;3227;42.654;23.360;2023-02-01T13:22:17;7.63;;;2.37;;
6388;SDS011;3227;42.654;23.360;2023-02-01T13:24:48;5.17;;;2.57;;
6388;SDS011;3227;42.654;23.360;2023-02-01T13:27:19;9.00;;;2.50;;
6388;SDS011;3227;42.654;23.360;2023-02-01T13:29:50;5.27;;;2.43;;
6388;SDS011;3227;42.654;23.360;2023-02-01T13:32:32;5.07;;;2.50;;
6388;SDS011;3227;42.654;23.360;2023-02-01T13:35:25;5.80;;;2.60;;
6388;SDS011;3227;42.654;23.360;2023-02-01T13:41:15;4.53;;;2.30;;
6388;SDS011;3227;42.654;23.360;2023-02-01T13:43:55;5.63;;;2.70;;
6388;SDS011;3227;42.654;23.360;2023-02-01T13:46:29;5.10;;;2.57;;
6388;SDS011;3227;42.654;23.360;2023-02-01T13:49:14;3.93;;;2.30;;
6388;SDS011;3227;42.654;23.360;2023-02-01T13:51:47;6.30;;;2.30;;
6388;SDS011;3227;42.654;23.360;2023-02-01T13:54:29;4.80;;;2.30;;
6388;SDS011;3227;42.654;23.360;2023-02-01T13:56:58;3.83;;;2.27;;
6388;SDS011;3227;42.654;23.360;2023-02-01T13:59:44;8.17;;;2.77;;
6388;SDS011;3227;42.654;23.360;2023-02-01T14:08:40;7.27;;;3.20;;
6388;SDS011;3227;42.654;23.360;2023-02-01T14:14:06;5.30;;;2.70;;
6388;SDS011;3227;42.654;23.360;2023-02-01T14:19:53;4.70;;;2.50;;
6388;SDS011;3227;42.654;23.360;2023-02-01T14:26:16;6.80;;;2.90;;
6388;SDS011;3227;42.654;23.360;2023-02-01T14:28:56;4.97;;;2.37;;
6388;SDS011;3227;42.654;23.360;2023-02-01T14:31:31;7.20;;;2.40;;
6388;SDS011;3227;42.654;23.360;2023-02-01T14:34:01;4.87;;;2.60;;
6388;SDS011;3227;42.654;23.360;2023-02-01T14:36:42;5.47;;;2.50;;
6388;SDS011;3227;42.654;23.360;2023-02-01T14:39:22;4.53;;;2.50;;
6388;SDS011;3227;42.654;23.360;2023-02-01T14:41:53;6.03;;;2.77;;
6388;SDS011;3227;42.654;23.360;2023-02-01T14:44:27;7.13;;;2.67;;
6388;SDS011;3227;42.654;23.360;2023-02-01T14:47:03;5.50;;;2.40;;
6388;SDS011;3227;42.654;23.360;2023-02-01T14:49:32;5.67;;;2.70;;
6388;SDS011;3227;42.654;23.360;2023-02-01T14:52:02;7.50;;;2.50;;
6388;SDS011;3227;42.654;23.360;2023-02-01T14:54:36;8.67;;;3.03;;
6388;SDS011;3227;42.654;23.360;2023-02-01T14:57:08;6.00;;;2.70;;
6388;SDS011;3227;42.654;23.360;2023-02-01T14:59:41;6.93;;;2.90;;
6388;SDS011;3227;42.654;23.360;2023-02-01T15:02:18;6.00;;;2.90;;
6388;SDS011;3227;42.654;23.360;2023-02-01T15:04:53;8.20;;;2.80;;
6388;SDS011;3227;42.654;23.360;2023-02-01T15:07:22;5.77;;;2.80;;
6388;SDS011;3227;42.654;23.360;2023-02-01T15:09:52;11.00;;;3.23;;
6388;SDS011;3227;42.654;23.360;2023-02-01T15:12:23;5.40;;;2.70;;
6388;SDS011;3227;42.654;23.360;2023-02-01T15:17:51;5.70;;;2.90;;
6388;SDS011;3227;42.654;23.360;2023-02-01T15:20:20;7.17;;;2.87;;
6388;SDS011;3227;42.654;23.360;2023-02-01T15:22:53;5.53;;;2.70;;
6388;SDS011;3227;42.654;23.360;2023-02-01T15:25:23;6.20;;;3.00;;
6388;SDS011;3227;42.654;23.360;2023-02-01T15:27:51;5.20;;;2.83;;
6388;SDS011;3227;42.654;23.360;2023-02-01T15:30:19;8.10;;;3.13;;
6388;SDS011;3227;42.654;23.360;2023-02-01T15:32:48;9.67;;;3.33;;
6388;SDS011;3227;42.654;23.360;2023-02-01T15:35:35;9.00;;;3.87;;
6388;SDS011;3227;42.654;23.360;2023-02-01T15:38:19;8.50;;;4.13;;
6388;SDS011;3227;42.654;23.360;2023-02-01T15:41:08;12.23;;;5.43;;
6388;SDS011;3227;42.654;23.360;2023-02-01T15:43:39;8.63;;;3.87;;
6388;SDS011;3227;42.654;23.360;2023-02-01T15:46:09;8.13;;;3.40;;
6388;SDS011;3227;42.654;23.360;2023-02-01T15:48:39;7.33;;;3.30;;
6388;SDS011;3227;42.654;23.360;2023-02-01T15:51:17;4.80;;;2.70;;
6388;SDS011;3227;42.654;23.360;2023-02-01T15:53:51;6.13;;;2.77;;
6388;SDS011;3227;42.654;23.360;2023-02-01T15:56:22;6.07;;;3.00;;
6388;SDS011;3227;42.654;23.360;2023-02-01T15:58:51;6.53;;;2.90;;
6388;SDS011;3227;42.654;23.360;2023-02-01T16:01:21;6.57;;;4.00;;
6388;SDS011;3227;42.654;23.360;2023-02-01T16:03:48;6.33;;;2.73;;
6388;SDS011;3227;42.654;23.360;2023-02-01T16:06:28;7.20;;;2.93;;
6388;SDS011;3227;42.654;23.360;2023-02-01T16:09:09;6.23;;;2.80;;
6388;SDS011;3227;42.654;23.360;2023-02-01T16:11:46;4.77;;;2.60;;